Time;durP1;ratioP1;P1;durP2;ratioP2;P2;SDS_P1;SDS_P2;PMS_P1;PMS_P2;Temp;Humidity;BMP_temperature;BMP_pressure;BME280_temperature;BME280_humidity;BME280_pressure;Samples;Min_cycle;Max_cycle;Signal;HPM_P1;HPM_P2
2022/06/28 00:00:05;;;;;;;9.73;1.05;;;12.30;99.90;;;;;;5030883;28;20485;-68
2022/06/28 00:02:33;;;;;;;5.72;0.90;;;12.50;99.90;;;;;;5033194;28;20025;-67
2022/06/28 00:05:00;;;;;;;4.32;0.60;;;12.70;99.90;;;;;;5039905;28;20082;-68
2022/06/28 00:07:28;;;;;;;5.72;1.20;;;13.00;99.90;;;;;;5029359;28;20095;-69
2022/06/28 00:09:55;;;;;;;5.70;1.45;;;13.30;99.90;;;;;;5035904;28;20040;-68
2022/06/28 00:12:22;;;;;;;8.77;0.68;;;13.60;99.90;;;;;;5037157;28;20036;-68
2022/06/28 00:17:35;;;;;;;4.55;0.35;;;14.00;99.90;;;;;;5033909;28;20040;-68
2022/06/28 00:20:04;;;;;;;7.45;0.98;;;14.00;99.90;;;;;;5039510;28;20461;-68
2022/06/28 00:22:31;;;;;;;5.47;1.35;;;14.00;99.90;;;;;;5020731;28;20042;-68
2022/06/28 00:24:58;;;;;;;5.15;0.60;;;13.80;99.90;;;;;;5027416;28;20041;-67
2022/06/28 00:27:26;;;;;;;4.45;1.02;;;13.60;99.90;;;;;;5040817;28;20025;-67
2022/06/28 00:29:53;;;;;;;4.18;0.60;;;13.50;99.90;;;;;;5019973;28;20026;-68
2022/06/28 00:32:21;;;;;;;6.72;0.73;;;13.60;99.90;;;;;;5033961;28;20033;-68
2022/06/28 00:34:48;;;;;;;5.82;1.55;;;13.80;99.90;;;;;;5019942;28;20037;-68
2022/06/28 00:37:15;;;;;;;6.57;1.50;;;14.00;99.90;;;;;;5029908;28;20040;-68
2022/06/28 00:39:43;;;;;;;5.40;0.52;;;13.80;99.90;;;;;;5033935;28;20090;-68
2022/06/28 00:42:11;;;;;;;5.57;0.90;;;13.70;99.90;;;;;;5033671;28;20113;-69
2022/06/28 00:44:39;;;;;;;4.32;0.90;;;13.90;99.90;;;;;;5026481;28;20054;-67
2022/06/28 00:47:09;;;;;;;3.10;1.00;;;13.90;99.90;;;;;;5033012;28;20044;-68
2022/06/28 00:49:41;;;;;;;13.90;7.25;;;13.70;99.90;;;;;;5033320;28;20040;-68
2022/06/28 00:52:10;;;;;;;5.00;0.80;;;13.90;99.90;;;;;;5022722;28;20022;-68
2022/06/28 00:54:38;;;;;;;6.00;2.10;;;13.80;99.90;;;;;;5017107;28;20028;-68
2022/06/28 00:57:06;;;;;;;7.55;1.00;;;13.90;99.90;;;;;;5019574;28;20061;-69
2022/06/28 00:59:34;;;;;;;9.70;1.48;;;14.00;99.90;;;;;;5037085;28;20482;-68
2022/06/28 01:02:02;;;;;;;4.07;0.98;;;14.00;99.90;;;;;;5035144;28;20067;-69
2022/06/28 01:04:29;;;;;;;6.45;0.95;;;14.00;99.90;;;;;;5042242;28;20017;-69
2022/06/28 01:06:57;;;;;;;4.03;0.82;;;14.00;99.90;;;;;;5035510;28;20504;-69
2022/06/28 01:09:24;;;;;;;7.80;1.08;;;14.10;99.90;;;;;;5036283;28;20414;-69
2022/06/28 01:11:51;;;;;;;6.18;0.60;;;14.20;99.90;;;;;;5026839;28;20095;-69
2022/06/28 01:14:19;;;;;;;9.57;1.25;;;14.20;99.90;;;;;;5028860;28;20029;-70
2022/06/28 01:16:47;;;;;;;9.23;1.52;;;14.30;99.90;;;;;;5022416;28;20038;-69
2022/06/28 01:19:18;;;;;;;4.45;0.90;;;14.40;99.90;;;;;;5025354;28;20032;-69
2022/06/28 01:21:49;;;;;;;8.07;1.27;;;14.40;99.90;;;;;;5026628;28;20397;-70
2022/06/28 01:24:16;;;;;;;5.10;1.15;;;14.40;99.90;;;;;;5025597;28;20029;-69
2022/06/28 01:26:46;;;;;;;4.53;0.60;;;14.50;99.90;;;;;;5037970;28;20033;-70
2022/06/28 01:29:14;;;;;;;5.97;0.75;;;14.60;99.90;;;;;;5020160;28;20026;-70
2022/06/28 01:31:41;;;;;;;9.15;0.98;;;14.60;99.90;;;;;;5015112;28;20494;-70
2022/06/28 01:34:10;;;;;;;7.35;0.88;;;14.60;99.90;;;;;;5035707;28;20120;-69
2022/06/28 01:36:37;;;;;;;8.95;1.00;;;14.60;99.90;;;;;;5022103;28;20034;-69
2022/06/28 01:39:05;;;;;;;5.18;0.47;;;14.70;99.90;;;;;;5021254;28;20076;-68
2022/06/28 01:41:35;;;;;;;8.32;1.33;;;14.70;99.90;;;;;;5025728;28;20534;-69
2022/06/28 01:44:05;;;;;;;8.57;1.10;;;14.60;99.90;;;;;;5019889;28;20537;-68
2022/06/28 01:46:36;;;;;;;7.60;1.20;;;14.70;99.90;;;;;;5027188;28;20021;-68
2022/06/28 01:49:07;;;;;;;6.40;0.88;;;14.80;99.90;;;;;;5021734;28;20052;-69
2022/06/28 01:51:36;;;;;;;8.52;0.77;;;14.60;99.90;;;;;;5013985;28;20022;-68
2022/06/28 01:54:03;;;;;;;4.65;0.60;;;14.20;99.90;;;;;;5037778;28;20052;-68
2022/06/28 01:56:40;;;;;;;6.38;0.60;;;14.00;99.90;;;;;;5075714;27;20462;-67
2022/06/28 01:59:07;;;;;;;11.73;1.42;;;13.90;99.90;;;;;;5061382;28;20017;-67
2022/06/28 02:01:36;;;;;;;12.02;1.20;;;14.00;99.90;;;;;;5049773;28;20112;-67
2022/06/28 02:04:19;;;;;;;4.97;1.05;;;14.20;99.90;;;;;;5051526;28;20388;-67
2022/06/28 02:06:46;;;;;;;6.03;0.98;;;14.50;99.90;;;;;;5060741;28;20027;-67
2022/06/28 02:09:14;;;;;;;6.78;0.63;;;14.50;99.90;;;;;;5072288;28;20035;-67
2022/06/28 02:11:41;;;;;;;6.72;0.93;;;14.40;99.90;;;;;;5061519;28;20090;-67
2022/06/28 02:14:09;;;;;;;9.57;1.05;;;14.70;99.90;;;;;;5052578;28;20473;-67
2022/06/28 02:16:37;;;;;;;6.93;0.70;;;14.80;99.90;;;;;;5062792;28;20444;-68
2022/06/28 02:19:04;;;;;;;5.15;0.50;;;14.70;99.90;;;;;;5058261;28;20062;-67
2022/06/28 02:21:40;;;;;;;2.97;0.55;;;14.60;99.90;;;;;;5053516;28;20025;-68
2022/06/28 02:24:09;;;;;;;3.70;0.65;;;14.50;99.90;;;;;;5050441;28;20025;-68
2022/06/28 02:26:36;;;;;;;4.78;0.52;;;14.30;99.90;;;;;;5051809;28;20025;-68
2022/06/28 02:29:05;;;;;;;6.50;0.50;;;14.30;99.90;;;;;;5048732;28;20082;-68
2022/06/28 02:31:33;;;;;;;5.75;0.50;;;14.30;99.90;;;;;;5049812;28;20057;-68
2022/06/28 02:34:00;;;;;;;5.47;0.65;;;14.40;99.90;;;;;;5049459;28;20230;-68
2022/06/28 02:41:55;;;;;;;7.88;0.52;;;14.20;99.90;;;;;;5049236;28;20116;-68
2022/06/28 02:44:22;;;;;;;5.32;0.90;;;14.20;99.90;;;;;;5051212;28;20031;-68
2022/06/28 02:46:49;;;;;;;4.13;0.88;;;14.40;99.90;;;;;;5061569;28;20040;-68
2022/06/28 02:49:17;;;;;;;4.72;0.88;;;14.30;99.90;;;;;;5066296;28;20385;-69
2022/06/28 02:51:44;;;;;;;4.25;0.73;;;14.30;99.90;;;;;;5047455;28;20075;-69
2022/06/28 02:54:12;;;;;;;7.18;0.80;;;14.30;99.90;;;;;;5050040;28;20540;-69
2022/06/28 02:56:40;;;;;;;4.10;0.45;;;14.20;99.90;;;;;;5048553;28;20489;-69
2022/06/28 02:59:07;;;;;;;5.75;0.60;;;14.20;99.90;;;;;;5049400;28;20377;-69
2022/06/28 03:01:35;;;;;;;5.68;0.60;;;14.10;99.90;;;;;;5061139;28;20028;-68
2022/06/28 03:04:02;;;;;;;3.65;1.08;;;14.20;99.90;;;;;;5069022;28;20100;-69
2022/06/28 03:06:29;;;;;;;6.32;0.65;;;14.20;99.90;;;;;;5052719;28;20021;-69
2022/06/28 03:08:56;;;;;;;7.75;1.13;;;14.10;99.90;;;;;;5034717;28;20056;-69
2022/06/28 03:11:23;;;;;;;7.57;0.77;;;14.00;99.90;;;;;;5047216;28;20116;-69
2022/06/28 03:13:51;;;;;;;10.10;1.90;;;13.80;99.90;;;;;;5038872;28;20490;-69
2022/06/28 03:16:18;;;;;;;4.57;0.70;;;13.80;99.90;;;;;;5037205;28;20029;-69
2022/06/28 03:18:45;;;;;;;8.18;0.90;;;13.80;99.90;;;;;;5035453;28;20113;-68
2022/06/28 03:21:13;;;;;;;6.85;1.45;;;13.90;99.90;;;;;;5045005;28;20032;-69
2022/06/28 03:23:40;;;;;;;6.85;1.05;;;14.00;99.90;;;;;;5042114;28;20033;-68
2022/06/28 03:26:07;;;;;;;4.13;1.52;;;14.10;99.90;;;;;;5035478;28;20505;-69
2022/06/28 03:28:34;;;;;;;4.10;1.00;;;14.30;99.90;;;;;;5035763;28;20018;-69
2022/06/28 03:31:02;;;;;;;7.20;0.70;;;14.40;99.90;;;;;;5036121;28;20038;-69
2022/06/28 03:33:29;;;;;;;3.05;0.40;;;14.40;99.90;;;;;;5034842;28;20021;-69
2022/06/28 03:35:56;;;;;;;3.25;0.60;;;14.20;99.90;;;;;;5050425;28;20028;-69
2022/06/28 03:38:24;;;;;;;4.15;0.45;;;14.20;99.90;;;;;;5047447;28;20028;-69
2022/06/28 03:40:51;;;;;;;6.38;0.80;;;14.10;99.90;;;;;;5043786;28;20474;-69
2022/06/28 03:43:18;;;;;;;8.10;0.80;;;14.00;99.90;;;;;;5035286;28;20025;-69
2022/06/28 03:45:46;;;;;;;5.07;0.60;;;14.10;99.90;;;;;;5039447;28;20037;-69
2022/06/28 03:48:13;;;;;;;9.38;1.17;;;14.40;99.90;;;;;;5055558;28;20033;-69
2022/06/28 03:50:40;;;;;;;4.97;0.57;;;14.70;99.90;;;;;;5048725;28;20040;-70
2022/06/28 03:53:08;;;;;;;4.25;0.73;;;14.90;99.90;;;;;;5034934;28;20035;-69
2022/06/28 03:55:35;;;;;;;4.13;0.60;;;14.90;99.90;;;;;;5034333;28;20382;-69
2022/06/28 03:58:02;;;;;;;5.80;1.20;;;14.80;99.90;;;;;;5034416;28;20029;-69
2022/06/28 04:00:30;;;;;;;8.75;0.75;;;14.60;99.90;;;;;;5033655;28;20032;-69
2022/06/28 04:03:00;;;;;;;5.63;0.50;;;14.50;99.90;;;;;;5034074;28;20025;-69
2022/06/28 04:05:28;;;;;;;5.28;0.60;;;14.40;99.90;;;;;;5043031;28;20033;-69
2022/06/28 04:07:56;;;;;;;6.15;0.70;;;14.40;99.90;;;;;;5036443;28;20029;-69
2022/06/28 04:10:26;;;;;;;6.80;0.65;;;14.30;99.90;;;;;;5034706;28;20620;-69
2022/06/28 04:12:53;;;;;;;5.10;0.60;;;14.40;99.90;;;;;;5034235;28;20017;-69
2022/06/28 04:15:21;;;;;;;6.35;0.47;;;14.50;99.90;;;;;;5033749;28;20037;-69
2022/06/28 04:17:48;;;;;;;3.47;0.47;;;14.50;99.90;;;;;;5033806;28;20056;-69
2022/06/28 04:20:15;;;;;;;4.82;0.50;;;14.40;99.90;;;;;;5034326;28;20026;-69
2022/06/28 04:22:42;;;;;;;4.90;0.50;;;14.50;99.90;;;;;;5044103;28;20021;-69
2022/06/28 04:25:10;;;;;;;3.00;0.50;;;14.40;99.90;;;;;;5047879;28;20082;-69
2022/06/28 04:27:37;;;;;;;3.83;0.32;;;14.20;99.90;;;;;;5034283;28;20029;-69
2022/06/28 04:30:05;;;;;;;6.53;0.73;;;14.10;99.90;;;;;;5033625;28;20032;-69
2022/06/28 04:32:32;;;;;;;5.57;0.77;;;14.10;99.90;;;;;;5034167;28;20052;-69
2022/06/28 04:35:00;;;;;;;5.90;0.50;;;14.20;99.90;;;;;;5032084;28;20037;-69
2022/06/28 04:37:27;;;;;;;3.72;0.40;;;14.20;99.90;;;;;;5033115;28;20021;-69
2022/06/28 04:39:54;;;;;;;3.38;0.50;;;14.20;99.90;;;;;;5034313;28;20022;-69
2022/06/28 04:42:22;;;;;;;7.55;1.23;;;14.30;99.90;;;;;;5034515;28;20478;-70
2022/06/28 04:44:49;;;;;;;4.68;0.98;;;14.30;99.90;;;;;;5033249;28;20025;-69
2022/06/28 04:47:16;;;;;;;6.13;1.00;;;14.40;99.90;;;;;;5032995;28;20029;-70
2022/06/28 04:49:44;;;;;;;4.07;0.25;;;14.30;99.90;;;;;;5033303;28;20026;-70
2022/06/28 04:52:11;;;;;;;4.78;0.55;;;14.20;99.90;;;;;;5033659;28;20029;-69
2022/06/28 04:54:38;;;;;;;4.07;1.05;;;14.10;99.90;;;;;;5033745;28;20057;-70
2022/06/28 04:57:06;;;;;;;2.70;0.50;;;13.90;99.90;;;;;;5033369;28;20052;-70
2022/06/28 04:59:33;;;;;;;7.45;0.68;;;13.90;99.90;;;;;;5033141;28;20513;-69
2022/06/28 05:02:00;;;;;;;4.88;0.40;;;13.90;99.90;;;;;;5034451;28;20493;-67
2022/06/28 05:04:27;;;;;;;3.13;0.45;;;14.00;99.90;;;;;;5036004;28;20445;-70
2022/06/28 05:06:55;;;;;;;4.63;0.45;;;13.90;99.90;;;;;;5037143;28;20504;-69
2022/06/28 05:09:22;;;;;;;3.35;0.40;;;13.80;99.90;;;;;;5033665;28;20386;-70
2022/06/28 05:11:49;;;;;;;4.53;0.75;;;13.80;99.90;;;;;;5046618;28;20036;-69
2022/06/28 05:14:16;;;;;;;4.65;0.63;;;13.90;99.90;;;;;;5053282;28;20027;-69
2022/06/28 05:16:45;;;;;;;2.83;0.60;;;13.90;99.90;;;;;;5039400;28;20036;-69
2022/06/28 05:19:13;;;;;;;3.78;0.45;;;13.90;99.90;;;;;;5032880;28;20025;-69
2022/06/28 05:21:40;;;;;;;4.38;0.52;;;13.90;99.90;;;;;;5056054;28;20052;-69
2022/06/28 05:24:07;;;;;;;6.20;1.52;;;13.90;99.90;;;;;;5052722;28;20036;-69
2022/06/28 05:26:35;;;;;;;7.07;0.50;;;13.80;99.90;;;;;;5033038;28;20037;-69
2022/06/28 05:29:02;;;;;;;2.47;0.20;;;13.80;99.90;;;;;;5033193;28;20470;-69
2022/06/28 05:31:30;;;;;;;5.07;0.52;;;13.80;99.90;;;;;;5038448;28;20033;-69
2022/06/28 05:33:57;;;;;;;6.00;0.25;;;13.90;99.90;;;;;;5047636;28;20486;-69
2022/06/28 05:36:24;;;;;;;4.63;0.55;;;13.80;99.90;;;;;;5051621;28;20582;-70
2022/06/28 05:38:51;;;;;;;6.35;0.77;;;13.80;99.90;;;;;;5053100;28;20029;-69
2022/06/28 05:41:19;;;;;;;3.10;0.47;;;13.80;99.90;;;;;;5042027;28;20025;-69
2022/06/28 05:43:46;;;;;;;6.35;0.73;;;13.80;99.90;;;;;;5033530;28;20026;-69
2022/06/28 05:46:13;;;;;;;4.72;0.50;;;13.90;99.90;;;;;;5042077;28;20029;-69
2022/06/28 05:48:40;;;;;;;5.13;0.28;;;13.80;99.90;;;;;;5044460;28;20037;-69
2022/06/28 05:51:08;;;;;;;3.30;0.63;;;13.80;99.90;;;;;;5033660;28;20433;-69
2022/06/28 05:53:36;;;;;;;3.95;0.38;;;13.80;99.90;;;;;;5033738;28;20029;-69
2022/06/28 05:56:03;;;;;;;2.20;0.63;;;13.70;99.90;;;;;;5035568;28;20049;-69
2022/06/28 05:58:31;;;;;;;3.78;0.30;;;13.70;99.90;;;;;;5036651;28;20443;-68
2022/06/28 06:00:58;;;;;;;4.90;0.45;;;13.80;99.90;;;;;;5044649;28;20025;-69
2022/06/28 06:03:25;;;;;;;4.45;0.70;;;13.70;99.90;;;;;;5042961;28;20069;-69
2022/06/28 06:05:53;;;;;;;3.50;0.63;;;13.70;99.90;;;;;;5042943;28;20038;-69
2022/06/28 06:08:21;;;;;;;3.00;0.30;;;13.70;99.90;;;;;;5032681;28;20034;-69
2022/06/28 06:10:48;;;;;;;4.72;0.50;;;13.70;99.90;;;;;;5044474;28;20029;-69
2022/06/28 06:13:15;;;;;;;3.58;0.50;;;13.70;99.90;;;;;;5043086;28;20017;-69
2022/06/28 06:15:43;;;;;;;6.00;1.25;;;13.70;99.90;;;;;;5037891;28;20053;-69
2022/06/28 06:18:10;;;;;;;7.18;0.45;;;13.70;99.90;;;;;;5032651;28;20135;-69
2022/06/28 06:20:37;;;;;;;5.75;0.68;;;13.60;99.90;;;;;;5032723;28;20049;-69
2022/06/28 06:23:05;;;;;;;7.50;0.57;;;13.70;99.90;;;;;;5041729;28;20033;-69
2022/06/28 06:25:32;;;;;;;2.63;0.45;;;13.60;99.90;;;;;;5050959;28;20029;-69
2022/06/28 06:27:59;;;;;;;6.03;0.52;;;13.60;99.90;;;;;;5051762;28;20445;-70
2022/06/28 06:30:27;;;;;;;2.83;0.20;;;13.60;99.90;;;;;;5051335;28;20044;-70
2022/06/28 06:32:55;;;;;;;10.20;0.88;;;13.60;99.90;;;;;;5045700;28;20438;-69
2022/06/28 06:35:22;;;;;;;9.25;0.77;;;13.70;99.90;;;;;;5034559;28;20048;-70
2022/06/28 06:37:49;;;;;;;4.47;1.00;;;13.60;99.90;;;;;;5039804;28;20037;-69
2022/06/28 06:40:16;;;;;;;8.88;1.52;;;13.60;99.90;;;;;;5032959;28;20025;-69
2022/06/28 06:42:44;;;;;;;12.63;1.35;;;13.60;99.90;;;;;;5049434;28;20053;-69
2022/06/28 06:45:11;;;;;;;3.08;0.82;;;13.60;99.90;;;;;;5036060;28;20573;-69
2022/06/28 06:47:39;;;;;;;8.27;0.85;;;13.60;99.90;;;;;;5056228;28;20039;-70
2022/06/28 06:50:08;;;;;;;8.75;1.00;;;13.40;99.90;;;;;;5046503;28;20030;-69
2022/06/28 06:52:36;;;;;;;4.65;0.60;;;13.20;99.90;;;;;;5052392;28;20147;-69
2022/06/28 06:55:04;;;;;;;2.72;0.40;;;13.10;99.90;;;;;;5040869;28;20038;-70
2022/06/28 06:57:31;;;;;;;6.00;0.82;;;12.80;99.90;;;;;;5038311;28;20037;-70
2022/06/28 06:59:59;;;;;;;6.95;1.63;;;12.60;99.90;;;;;;5052663;28;20021;-69
2022/06/28 07:02:26;;;;;;;7.00;1.30;;;12.50;99.90;;;;;;5035774;28;20112;-70
2022/06/28 07:04:53;;;;;;;3.85;0.77;;;12.30;99.90;;;;;;5035829;28;20563;-70
2022/06/28 07:07:21;;;;;;;10.88;4.22;;;12.20;99.90;;;;;;5036432;28;20029;-70
2022/06/28 07:09:48;;;;;;;5.35;3.25;;;12.10;99.90;;;;;;5035245;28;20053;-70
2022/06/28 07:12:15;;;;;;;4.72;1.48;;;12.10;99.90;;;;;;5036486;28;20401;-70
2022/06/28 07:14:43;;;;;;;5.20;1.42;;;12.00;99.90;;;;;;5034936;28;20030;-70
2022/06/28 07:17:10;;;;;;;9.38;1.00;;;12.00;99.90;;;;;;5039848;28;20367;-70
2022/06/28 07:19:38;;;;;;;4.70;1.30;;;12.00;99.90;;;;;;5035538;28;20025;-70
2022/06/28 07:22:06;;;;;;;9.40;1.90;;;12.00;99.90;;;;;;5035722;28;20072;-70
2022/06/28 07:24:33;;;;;;;7.63;2.53;;;12.00;99.90;;;;;;5066757;28;20033;-70
2022/06/28 07:27:00;;;;;;;7.63;2.38;;;12.00;99.90;;;;;;5036353;28;20032;-71
2022/06/28 07:29:28;;;;;;;6.75;2.00;;;12.00;99.90;;;;;;5035694;28;20034;-71
2022/06/28 07:31:56;;;;;;;7.35;1.48;;;11.90;99.90;;;;;;5035297;28;20040;-71
2022/06/28 07:34:24;;;;;;;7.05;1.67;;;11.90;99.90;;;;;;5018062;28;20026;-70
2022/06/28 07:36:52;;;;;;;9.02;1.20;;;11.90;99.90;;;;;;5034115;28;20107;-71
2022/06/28 07:39:19;;;;;;;8.13;2.25;;;11.90;99.90;;;;;;5034039;28;20083;-71
2022/06/28 07:41:46;;;;;;;3.83;0.65;;;11.90;99.90;;;;;;5035334;28;20029;-71
2022/06/28 07:44:13;;;;;;;4.47;1.35;;;11.90;99.90;;;;;;5040528;28;20018;-71
2022/06/28 07:46:41;;;;;;;3.65;1.55;;;12.00;99.90;;;;;;5035894;28;20033;-71
2022/06/28 07:49:08;;;;;;;6.90;1.35;;;12.10;99.90;;;;;;5050425;28;20044;-71
2022/06/28 07:54:21;;;;;;;11.00;1.58;;;12.10;99.90;;;;;;5038236;28;20044;-70
2022/06/28 07:56:48;;;;;;;6.22;1.65;;;12.00;99.90;;;;;;5035812;28;20037;-71
2022/06/28 07:59:15;;;;;;;8.20;2.33;;;12.00;99.90;;;;;;5051628;28;20025;-70
2022/06/28 08:01:43;;;;;;;8.13;2.60;;;12.00;99.90;;;;;;5053907;28;20083;-71
2022/06/28 08:04:11;;;;;;;6.05;2.25;;;11.90;99.90;;;;;;5054986;28;20028;-71
2022/06/28 08:06:39;;;;;;;4.90;2.20;;;11.90;99.90;;;;;;5040981;28;20108;-70
2022/06/28 08:09:06;;;;;;;6.25;2.15;;;11.90;99.90;;;;;;5033489;28;20104;-71
2022/06/28 08:11:34;;;;;;;5.95;1.63;;;11.90;99.90;;;;;;5047145;28;20473;-71
2022/06/28 08:14:02;;;;;;;6.93;2.42;;;11.90;99.90;;;;;;5037337;28;20030;-71
2022/06/28 08:16:30;;;;;;;11.57;2.15;;;11.90;99.90;;;;;;5042332;28;20116;-70
2022/06/28 08:18:57;;;;;;;9.63;4.05;;;12.00;99.90;;;;;;5046632;28;20021;-70
2022/06/28 08:21:24;;;;;;;10.48;4.35;;;11.90;99.90;;;;;;5040739;28;20106;-70
2022/06/28 08:23:52;;;;;;;7.75;2.53;;;12.00;99.90;;;;;;5034379;28;20033;-71
2022/06/28 08:26:19;;;;;;;5.38;1.70;;;12.00;99.90;;;;;;5034619;28;20053;-71
2022/06/28 08:28:46;;;;;;;4.88;1.77;;;12.00;99.90;;;;;;5033740;28;20629;-70
2022/06/28 08:31:13;;;;;;;4.50;1.48;;;12.00;99.90;;;;;;5034149;28;20026;-71
2022/06/28 08:33:41;;;;;;;9.40;1.13;;;12.00;99.90;;;;;;5034085;28;20100;-71
2022/06/28 08:36:08;;;;;;;9.73;1.45;;;12.00;99.90;;;;;;5034783;28;20034;-71
2022/06/28 08:38:35;;;;;;;15.98;2.13;;;12.00;99.90;;;;;;5036007;28;20486;-70
2022/06/28 08:41:06;;;;;;;7.30;1.20;;;12.00;99.90;;;;;;5033347;28;20053;-71
2022/06/28 08:43:33;;;;;;;5.88;1.40;;;12.00;99.90;;;;;;5042553;28;20355;-70
2022/06/28 08:46:03;;;;;;;6.22;2.20;;;12.10;99.90;;;;;;5041295;28;20420;-70
2022/06/28 08:48:42;;;;;;;3.45;1.15;;;12.10;99.90;;;;;;5048211;28;20116;-73
2022/06/28 08:51:11;;;;;;;8.30;2.95;;;12.30;99.90;;;;;;5055958;28;20036;-73
2022/06/28 08:53:41;;;;;;;6.30;1.27;;;12.30;99.90;;;;;;5049949;28;20029;-73
2022/06/28 08:56:10;;;;;;;5.63;1.30;;;12.20;99.90;;;;;;5044232;28;20040;-72
2022/06/28 08:58:42;;;;;;;8.80;1.73;;;12.10;99.90;;;;;;5047883;28;20025;-73
2022/06/28 09:01:11;;;;;;;6.68;2.40;;;12.10;99.90;;;;;;5051956;28;20641;-73
2022/06/28 09:03:38;;;;;;;6.35;2.65;;;12.10;99.90;;;;;;5041945;28;20516;-73
2022/06/28 09:06:06;;;;;;;5.07;1.83;;;12.10;99.90;;;;;;5039950;28;20478;-73
2022/06/28 09:08:34;;;;;;;6.47;3.70;;;12.10;99.90;;;;;;5045812;28;20040;-72
2022/06/28 09:11:01;;;;;;;6.38;4.43;;;12.00;99.90;;;;;;5042940;28;20444;-73
2022/06/28 09:13:28;;;;;;;10.73;4.55;;;12.00;99.90;;;;;;5039762;28;20083;-73
2022/06/28 09:15:58;;;;;;;5.28;1.88;;;12.00;99.90;;;;;;5043032;28;20633;-73
2022/06/28 09:18:28;;;;;;;12.40;6.40;;;12.00;99.90;;;;;;5045335;28;20044;-73
2022/06/28 09:20:58;;;;;;;11.27;4.97;;;12.00;99.90;;;;;;5039809;28;20026;-73
2022/06/28 09:23:30;;;;;;;12.75;5.35;;;11.90;99.90;;;;;;5039287;28;20025;-73
2022/06/28 09:26:06;;;;;;;17.05;8.27;;;11.90;99.90;;;;;;5050626;28;20088;-73
2022/06/28 09:28:35;;;;;;;6.47;3.30;;;11.90;99.90;;;;;;5041536;28;20028;-71
2022/06/28 09:31:23;;;;;;;9.98;4.28;;;11.90;99.90;;;;;;5040807;28;20033;-71
2022/06/28 09:34:05;;;;;;;11.60;5.70;;;11.80;99.90;;;;;;5047316;28;20037;-71
2022/06/28 09:36:41;;;;;;;15.98;7.82;;;11.80;99.90;;;;;;5046961;28;20024;-71
2022/06/28 09:39:14;;;;;;;15.82;11.55;;;11.70;99.90;;;;;;5047721;28;20020;-71
2022/06/28 09:41:47;;;;;;;11.57;7.00;;;11.70;99.90;;;;;;5034617;28;20104;-71
2022/06/28 09:44:18;;;;;;;13.43;8.23;;;11.60;99.90;;;;;;5036462;28;20048;-72
2022/06/28 09:46:47;;;;;;;14.32;7.38;;;11.70;99.90;;;;;;5033510;28;20033;-71
2022/06/28 09:49:14;;;;;;;9.88;5.40;;;11.60;99.90;;;;;;5046846;28;20030;-71
2022/06/28 09:51:42;;;;;;;8.10;4.40;;;11.60;99.90;;;;;;5040129;28;20498;-71
2022/06/28 09:54:10;;;;;;;4.47;2.70;;;11.60;99.90;;;;;;5041515;28;20078;-71
2022/06/28 09:56:42;;;;;;;6.72;1.75;;;11.60;99.90;;;;;;5038329;28;20383;-72
2022/06/28 09:59:12;;;;;;;4.45;1.80;;;11.50;99.90;;;;;;5035919;28;20099;-72
2022/06/28 10:01:39;;;;;;;6.93;1.55;;;11.50;99.90;;;;;;5054873;28;20484;-72
2022/06/28 10:04:08;;;;;;;3.75;1.20;;;11.50;99.90;;;;;;5044545;28;20032;-72
2022/06/28 10:06:36;;;;;;;6.78;1.48;;;11.50;99.90;;;;;;5062182;28;20045;-72
2022/06/28 10:09:06;;;;;;;7.00;1.42;;;11.50;99.90;;;;;;5053414;28;20055;-71
2022/06/28 10:17:39;;;;;;;5.65;1.50;;;11.50;99.90;;;;;;5045916;28;20035;-71
2022/06/28 10:20:32;;;;;;;11.35;4.57;;;11.50;99.90;;;;;;5056716;28;20033;-71
2022/06/28 10:23:22;;;;;;;5.15;1.65;;;11.50;99.90;;;;;;5055680;28;20021;-71
2022/06/28 10:26:18;;;;;;;4.50;1.40;;;11.60;99.90;;;;;;5055233;28;20029;-71
2022/06/28 10:28:56;;;;;;;11.43;3.15;;;11.60;99.90;;;;;;5054610;28;20030;-71
2022/06/28 10:31:24;;;;;;;10.70;3.33;;;11.60;99.90;;;;;;5045971;28;20045;-71
2022/06/28 10:33:53;;;;;;;10.10;2.92;;;11.70;99.90;;;;;;5056225;28;20031;-71
2022/06/28 10:36:23;;;;;;;13.02;2.38;;;11.70;99.90;;;;;;5054968;28;20040;-71
2022/06/28 10:39:08;;;;;;;8.13;1.92;;;11.80;99.90;;;;;;5051949;28;20049;-71
2022/06/28 10:41:42;;;;;;;6.28;1.63;;;11.80;99.90;;;;;;5047560;28;20031;-71
2022/06/28 10:44:14;;;;;;;5.88;1.98;;;11.80;99.90;;;;;;5065280;28;20017;-72
2022/06/28 10:46:42;;;;;;;4.03;1.25;;;11.90;99.90;;;;;;5052972;28;20021;-71
2022/06/28 10:49:12;;;;;;;6.13;1.90;;;11.90;99.90;;;;;;5057742;28;20036;-71
2022/06/28 10:52:19;;;;;;;6.60;2.30;;;11.90;99.90;;;;;;5061431;28;20029;-71
2022/06/28 10:54:53;;;;;;;5.13;2.38;;;11.90;99.90;;;;;;5051909;28;20409;-71
2022/06/28 10:57:28;;;;;;;7.82;3.47;;;11.80;99.90;;;;;;5068189;28;20029;-71
2022/06/28 10:59:58;;;;;;;9.00;2.50;;;11.70;99.90;;;;;;5074273;28;20159;-71
2022/06/28 11:03:05;;;;;;;8.82;2.60;;;11.70;99.90;;;;;;5072413;28;20137;-70
2022/06/28 11:05:54;;;;;;;6.60;2.15;;;11.70;99.90;;;;;;5055434;28;20037;-71
2022/06/28 11:08:44;;;;;;;9.35;2.10;;;11.80;99.90;;;;;;5061234;28;20036;-70
2022/06/28 11:11:11;;;;;;;6.65;2.25;;;11.80;99.90;;;;;;5064051;28;20021;-70
2022/06/28 11:13:39;;;;;;;6.47;2.90;;;11.80;99.90;;;;;;5049986;28;20104;-70
2022/06/28 11:16:09;;;;;;;10.68;2.83;;;11.80;99.90;;;;;;5038345;28;20033;-71
2022/06/28 11:18:36;;;;;;;6.32;2.38;;;11.80;99.90;;;;;;5040058;28;20045;-70
2022/06/28 11:21:04;;;;;;;7.13;4.15;;;11.80;99.90;;;;;;5043086;28;20029;-71
2022/06/28 11:23:32;;;;;;;6.63;3.08;;;11.80;99.90;;;;;;5054626;28;20163;-71
2022/06/28 11:29:03;;;;;;;14.13;5.97;;;11.90;99.90;;;;;;5054686;28;20527;-72
2022/06/28 11:31:39;;;;;;;10.98;4.00;;;11.90;99.90;;;;;;5054970;28;20120;-71
2022/06/28 11:34:07;;;;;;;5.05;2.42;;;11.90;99.90;;;;;;5038449;28;20021;-71
2022/06/28 11:36:35;;;;;;;4.38;2.13;;;11.80;99.90;;;;;;5054781;28;20552;-71
2022/06/28 11:39:25;;;;;;;6.78;2.63;;;11.70;99.90;;;;;;5047347;28;20044;-71
2022/06/28 11:41:54;;;;;;;5.32;1.83;;;11.70;99.90;;;;;;5040162;28;20037;-72
2022/06/28 11:44:23;;;;;;;5.28;1.90;;;11.70;99.90;;;;;;5046443;28;20020;-72
2022/06/28 11:46:51;;;;;;;7.03;2.05;;;11.60;99.90;;;;;;5045706;28;20115;-71
2022/06/28 11:49:30;;;;;;;6.25;1.63;;;11.60;99.90;;;;;;5040479;28;20377;-72
2022/06/28 11:51:57;;;;;;;3.90;1.90;;;11.60;99.90;;;;;;5045681;28;20377;-72
2022/06/28 11:54:25;;;;;;;5.47;2.20;;;11.70;99.90;;;;;;5048434;28;20036;-71
2022/06/28 11:56:53;;;;;;;5.63;1.90;;;11.70;99.90;;;;;;5048458;28;20028;-72
2022/06/28 11:59:40;;;;;;;6.35;2.15;;;11.80;99.90;;;;;;5047155;28;20563;-72
2022/06/28 12:02:08;;;;;;;3.75;1.50;;;11.80;99.90;;;;;;5047668;28;20096;-72
2022/06/28 12:04:40;;;;;;;3.72;1.30;;;11.60;99.90;;;;;;5052255;28;20028;-72
2022/06/28 12:07:07;;;;;;;3.15;1.52;;;11.60;99.90;;;;;;5046982;28;20131;-72
2022/06/28 12:09:44;;;;;;;5.03;1.40;;;11.50;99.90;;;;;;5045604;28;20053;-72
2022/06/28 12:12:11;;;;;;;7.78;2.22;;;11.60;99.90;;;;;;5051981;28;20025;-71
2022/06/28 12:14:39;;;;;;;5.65;1.77;;;11.60;99.90;;;;;;5053451;28;20029;-72
2022/06/28 12:17:06;;;;;;;7.22;1.83;;;11.60;99.90;;;;;;5065847;28;20036;-71
2022/06/28 12:19:38;;;;;;;4.72;1.90;;;11.60;99.90;;;;;;5048532;28;20033;-71
2022/06/28 12:22:13;;;;;;;6.55;1.83;;;11.60;99.90;;;;;;5045961;28;20022;-71
2022/06/28 12:24:43;;;;;;;5.93;1.85;;;11.60;99.90;;;;;;5046302;28;20025;-71
2022/06/28 12:27:12;;;;;;;6.55;2.30;;;11.60;99.90;;;;;;5050484;28;20516;-71
2022/06/28 12:29:40;;;;;;;4.32;1.50;;;11.50;99.90;;;;;;5052128;28;20028;-71
2022/06/28 12:32:08;;;;;;;4.88;1.77;;;11.40;99.90;;;;;;5050816;28;20045;-71
2022/06/28 12:34:37;;;;;;;6.32;1.88;;;11.40;99.90;;;;;;5050379;28;20048;-71
2022/06/28 12:37:05;;;;;;;3.85;1.85;;;11.40;99.90;;;;;;5055548;28;20082;-71
2022/06/28 12:39:32;;;;;;;6.50;1.70;;;11.40;99.90;;;;;;5036939;28;20025;-71
2022/06/28 12:41:59;;;;;;;4.28;1.65;;;11.40;99.90;;;;;;5041588;28;20059;-71
2022/06/28 12:44:27;;;;;;;3.45;1.27;;;11.40;99.90;;;;;;5057067;28;20386;-71
2022/06/28 12:46:54;;;;;;;5.70;1.58;;;11.40;99.90;;;;;;5052789;28;20492;-71
2022/06/28 12:49:21;;;;;;;5.25;1.25;;;11.30;99.90;;;;;;5051163;28;20478;-71
2022/06/28 12:51:50;;;;;;;5.70;1.42;;;11.20;99.90;;;;;;5054643;28;20029;-71
2022/06/28 12:54:18;;;;;;;5.20;1.42;;;11.20;99.90;;;;;;5054532;28;20024;-71
2022/06/28 12:56:45;;;;;;;2.97;1.30;;;11.20;99.90;;;;;;5058640;28;20081;-71
2022/06/28 12:59:13;;;;;;;6.03;1.55;;;11.20;99.90;;;;;;5043686;28;20470;-71
2022/06/28 13:01:40;;;;;;;9.00;1.60;;;11.10;99.90;;;;;;5049454;28;20570;-71
2022/06/28 13:04:08;;;;;;;3.83;1.98;;;11.20;99.90;;;;;;5049665;28;20445;-71
2022/06/28 13:06:36;;;;;;;7.07;1.75;;;11.20;99.90;;;;;;5051239;28;20024;-71
2022/06/28 13:09:03;;;;;;;7.47;1.83;;;11.20;99.90;;;;;;5043897;28;20106;-72
2022/06/28 13:11:30;;;;;;;12.23;2.67;;;11.20;99.90;;;;;;5057660;28;20040;-71
2022/06/28 13:13:58;;;;;;;4.47;1.52;;;11.20;99.90;;;;;;5037747;28;20034;-71